createdAt,value
2019-04-14T00:02:36.738Z,62.40
2019-04-14T00:05:08.170Z,62.30
2019-04-14T00:07:36.206Z,62.90
2019-04-14T00:10:07.128Z,64.00
2019-04-14T00:12:33.933Z,63.60
2019-04-14T00:15:00.747Z,63.00
2019-04-14T00:17:28.386Z,63.90
2019-04-14T00:19:56.575Z,62.10
2019-04-14T00:22:27.536Z,61.80
2019-04-14T00:24:53.718Z,60.90
2019-04-14T00:27:21.454Z,60.60
2019-04-14T00:29:48.272Z,63.60
2019-04-14T00:32:16.140Z,64.30
2019-04-14T00:34:54.913Z,62.80
2019-04-14T00:37:23.585Z,63.50
2019-04-14T00:39:51.768Z,64.70
2019-04-14T00:42:23.442Z,65.30
2019-04-14T00:44:53.800Z,65.00
2019-04-14T00:47:22.592Z,64.70
2019-04-14T00:49:50.777Z,64.10
2019-04-14T00:52:18.874Z,64.20
2019-04-14T00:54:45.746Z,65.00
2019-04-14T00:57:13.484Z,63.80
2019-04-14T00:59:40.481Z,64.20
2019-04-14T01:02:09.889Z,64.50
2019-04-14T01:04:36.685Z,63.70
2019-04-14T01:07:04.360Z,63.30
2019-04-14T01:09:31.266Z,64.00
2019-04-14T01:11:59.509Z,64.50
2019-04-14T01:14:27.636Z,63.30
2019-04-14T01:16:55.794Z,63.60
2019-04-14T01:19:24.411Z,63.20
2019-04-14T01:21:52.415Z,62.30
2019-04-14T01:24:20.592Z,64.00
2019-04-14T01:27:08.131Z,63.70
2019-04-14T01:29:36.207Z,63.30
2019-04-14T01:32:04.403Z,63.60
2019-04-14T01:34:32.783Z,63.90
2019-04-14T01:37:00.720Z,63.30
2019-04-14T01:39:28.600Z,63.10
2019-04-14T01:41:56.444Z,61.70
2019-04-14T01:44:24.227Z,62.40
2019-04-14T01:46:52.086Z,61.20
2019-04-14T01:49:20.274Z,62.00
2019-04-14T01:52:01.379Z,61.80
2019-04-14T01:54:30.030Z,62.40
2019-04-14T01:57:04.650Z,62.30
2019-04-14T01:59:32.577Z,62.30
2019-04-14T02:02:00.774Z,60.50
2019-04-14T02:04:27.489Z,60.70
2019-04-14T02:06:55.228Z,61.40
2019-04-14T02:09:22.939Z,61.80
2019-04-14T02:11:50.785Z,60.30
2019-04-14T02:14:18.976Z,60.60
2019-04-14T02:16:52.177Z,60.90
2019-04-14T02:19:15.318Z,59.90
2019-04-14T02:21:43.352Z,59.70
2019-04-14T02:24:11.364Z,59.40
2019-04-14T02:26:39.334Z,59.60
2019-04-14T02:29:09.918Z,60.50
2019-04-14T02:31:59.977Z,60.30
2019-04-14T02:34:36.232Z,60.90
2019-04-14T02:39:36.424Z,59.30
2019-04-14T02:47:00.010Z,59.00
2019-04-14T02:49:19.432Z,58.90
2019-04-14T02:51:54.176Z,58.70
2019-04-14T02:54:22.836Z,59.20
2019-04-14T02:56:43.640Z,59.70
2019-04-14T02:59:17.103Z,61.20
2019-04-14T03:04:15.202Z,60.90
2019-04-14T03:06:46.856Z,60.20
2019-04-14T03:09:22.098Z,62.30
2019-04-14T03:11:41.586Z,62.00
2019-04-14T03:14:07.982Z,62.90
2019-04-14T03:17:09.058Z,62.60
2019-04-14T03:19:29.808Z,60.80
2019-04-14T03:22:12.467Z,60.30
2019-04-14T03:24:31.620Z,60.70
2019-04-14T03:27:06.333Z,60.70
2019-04-14T03:29:36.344Z,60.30
2019-04-14T03:32:44.683Z,60.50
2019-04-14T03:37:31.492Z,59.50
2019-04-14T03:39:48.008Z,60.40
2019-04-14T03:42:01.537Z,59.30
2019-04-14T03:46:58.709Z,58.90
2019-04-14T03:49:31.626Z,58.90
2019-04-14T03:54:15.922Z,58.90
2019-04-14T03:56:51.415Z,58.70
2019-04-14T03:59:18.006Z,58.70
2019-04-14T04:01:45.593Z,60.80
2019-04-14T04:04:12.454Z,59.40
2019-04-14T04:06:39.847Z,59.20
2019-04-14T04:09:06.371Z,59.10
2019-04-14T04:11:34.365Z,58.90
2019-04-14T04:14:01.171Z,59.30
2019-04-14T04:16:29.399Z,60.00
2019-04-14T04:19:04.081Z,61.70
2019-04-14T04:21:29.035Z,60.30
2019-04-14T04:24:00.048Z,61.10
2019-04-14T04:26:28.573Z,61.70
2019-04-14T04:29:11.744Z,63.80
2019-04-14T04:31:56.908Z,63.70
2019-04-14T04:34:29.369Z,66.00
2019-04-14T04:37:06.435Z,63.60
2019-04-14T04:39:36.511Z,62.40
2019-04-14T04:42:03.244Z,61.20
2019-04-14T04:44:29.559Z,61.70
2019-04-14T04:46:56.953Z,62.20
2019-04-14T04:49:26.491Z,61.60
2019-04-14T04:51:52.945Z,61.10
2019-04-14T04:54:19.402Z,60.70
2019-04-14T04:56:45.809Z,60.80
2019-04-14T04:59:12.703Z,61.60
2019-04-14T05:01:39.372Z,62.30
2019-04-14T05:04:06.866Z,63.00
2019-04-14T05:06:50.408Z,60.60
2019-04-14T05:09:38.507Z,61.20
2019-04-14T05:12:11.022Z,60.90
2019-04-14T05:14:43.366Z,62.60
2019-04-14T05:17:10.173Z,61.80
2019-04-14T05:19:39.361Z,62.40
2019-04-14T05:22:05.048Z,61.60
2019-04-14T05:24:31.575Z,62.00
2019-04-14T05:26:59.165Z,61.60
2019-04-14T05:29:25.772Z,61.20
2019-04-14T05:31:53.127Z,61.30
2019-04-14T05:34:19.805Z,60.60
2019-04-14T05:36:46.153Z,61.20
2019-04-14T05:39:13.496Z,60.90
2019-04-14T05:41:47.987Z,60.50
2019-04-14T05:44:08.239Z,60.20
2019-04-14T05:47:20.482Z,60.40
2019-04-14T05:49:51.310Z,60.10
2019-04-14T05:52:16.518Z,60.30
2019-04-14T05:54:42.825Z,60.40
2019-04-14T05:57:09.352Z,61.40
2019-04-14T05:59:35.892Z,61.60
2019-04-14T06:02:02.588Z,60.70
2019-04-14T06:04:28.948Z,61.30
2019-04-14T06:06:55.227Z,61.30
2019-04-14T06:09:21.515Z,61.70
2019-04-14T06:11:47.844Z,61.90
2019-04-14T06:14:14.220Z,61.60
2019-04-14T06:16:40.572Z,62.50
2019-04-14T06:19:06.865Z,62.00
2019-04-14T06:21:33.170Z,62.40
2019-04-14T06:23:59.451Z,62.20
2019-04-14T06:26:25.988Z,61.90
2019-04-14T06:28:52.607Z,61.80
2019-04-14T06:31:35.918Z,61.40
2019-04-14T06:34:04.120Z,62.10
2019-04-14T06:36:48.940Z,61.60
2019-04-14T06:39:20.040Z,62.30
2019-04-14T06:41:46.412Z,61.30
2019-04-14T06:44:12.752Z,63.20
2019-04-14T06:46:39.004Z,62.60
2019-04-14T06:49:05.356Z,62.40
2019-04-14T06:51:31.764Z,62.40
2019-04-14T06:53:58.038Z,61.30
2019-04-14T06:56:24.427Z,60.10
2019-04-14T06:58:50.735Z,58.90
2019-04-14T07:01:17.253Z,58.80
2019-04-14T07:03:43.536Z,58.00
2019-04-14T07:06:09.960Z,57.20
2019-04-14T07:08:36.233Z,56.30
2019-04-14T07:11:02.543Z,55.90
2019-04-14T07:13:29.025Z,55.60
2019-04-14T07:15:55.566Z,55.30
2019-04-14T07:18:21.824Z,54.00
2019-04-14T07:20:48.136Z,54.20
2019-04-14T07:23:14.426Z,54.10
2019-04-14T07:25:40.808Z,54.10
2019-04-14T07:28:07.534Z,53.00
2019-04-14T07:30:47.711Z,52.70
2019-04-14T07:33:15.895Z,52.10
2019-04-14T07:35:46.800Z,51.50
2019-04-14T07:38:15.085Z,52.00
2019-04-14T07:40:43.403Z,50.90
2019-04-14T07:43:11.747Z,50.30
2019-04-14T07:45:55.263Z,49.80
2019-04-14T07:48:32.434Z,49.00
2019-04-14T07:51:03.427Z,49.50
2019-04-14T07:53:31.962Z,49.10
2019-04-14T07:56:09.142Z,48.70
2019-04-14T07:58:37.294Z,47.30
2019-04-14T08:01:05.489Z,46.50
2019-04-14T08:03:33.700Z,46.90
2019-04-14T08:06:00.107Z,47.50
2019-04-14T08:08:26.288Z,48.10
2019-04-14T08:10:52.704Z,50.00
2019-04-14T08:13:18.982Z,51.00
2019-04-14T08:15:45.637Z,50.90
2019-04-14T08:18:12.775Z,50.70
2019-04-14T08:20:39.157Z,49.70
2019-04-14T08:23:05.445Z,48.90
2019-04-14T08:25:31.739Z,48.60
2019-04-14T08:27:59.786Z,49.90
2019-04-14T08:30:26.176Z,48.50
2019-04-14T08:32:52.606Z,49.00
2019-04-14T08:35:19.347Z,47.70
2019-04-14T08:37:45.762Z,48.70
2019-04-14T08:40:12.123Z,48.40
2019-04-14T08:42:46.535Z,47.80
2019-04-14T08:45:14.856Z,48.60
2019-04-14T08:47:45.756Z,46.90
2019-04-14T08:50:20.400Z,44.50
2019-04-14T08:52:51.558Z,44.10
2019-04-14T08:55:22.741Z,43.70
2019-04-14T08:57:56.821Z,42.80
2019-04-14T09:00:27.997Z,41.40
2019-04-14T09:03:13.021Z,42.00
2019-04-14T09:05:44.002Z,42.10
2019-04-14T09:08:30.491Z,43.10
2019-04-14T09:11:01.653Z,44.10
2019-04-14T09:13:28.051Z,43.80
2019-04-14T09:15:54.304Z,44.80
2019-04-14T09:18:20.684Z,43.90
2019-04-14T09:20:52.636Z,44.70
2019-04-14T09:23:15.109Z,45.00
2019-04-14T09:25:41.382Z,45.50
2019-04-14T09:28:07.967Z,45.50
2019-04-14T09:30:34.420Z,46.80
2019-04-14T09:33:00.717Z,47.10
2019-04-14T09:35:27.109Z,46.90
2019-04-14T09:37:53.395Z,47.10
2019-04-14T09:40:19.724Z,47.70
2019-04-14T09:42:46.077Z,48.00
2019-04-14T09:45:12.348Z,48.50
2019-04-14T09:47:38.669Z,48.60
2019-04-14T09:50:05.280Z,48.50
2019-04-14T09:52:31.643Z,48.30
2019-04-14T09:54:58.162Z,48.70
2019-04-14T09:57:24.428Z,48.90
2019-04-14T09:59:50.717Z,48.70
2019-04-14T10:02:17.032Z,49.10
2019-04-14T10:04:43.323Z,49.30
2019-04-14T10:07:09.721Z,50.00
2019-04-14T10:09:36.038Z,50.20
2019-04-14T10:12:02.780Z,50.40
2019-04-14T10:14:29.030Z,51.00
2019-04-14T10:16:55.462Z,51.40
2019-04-14T10:19:21.976Z,51.40
2019-04-14T10:21:48.302Z,52.00
2019-04-14T10:24:14.662Z,52.20
2019-04-14T10:26:41.047Z,52.30
2019-04-14T10:29:07.355Z,53.20
2019-04-14T10:31:33.641Z,53.80
2019-04-14T10:33:59.944Z,54.00
2019-04-14T10:36:26.275Z,54.00
2019-04-14T10:38:52.652Z,53.70
2019-04-14T10:41:19.145Z,53.60
2019-04-14T10:43:45.510Z,53.50
2019-04-14T10:46:11.798Z,53.80
2019-04-14T10:48:38.098Z,53.80
2019-04-14T10:51:04.470Z,53.70
2019-04-14T10:53:31.207Z,53.60
2019-04-14T10:55:57.459Z,53.60
2019-04-14T10:58:23.732Z,53.80
2019-04-14T11:00:50.206Z,55.50
2019-04-14T11:03:16.611Z,56.40
2019-04-14T11:05:45.005Z,58.20
2019-04-14T11:08:11.288Z,58.80
2019-04-14T11:10:37.721Z,61.30
2019-04-14T11:13:04.017Z,57.10
2019-04-14T11:15:30.330Z,57.00
2019-04-14T11:17:56.619Z,57.10
2019-04-14T11:20:22.908Z,56.80
2019-04-14T11:22:49.632Z,56.30
2019-04-14T11:25:15.904Z,56.10
2019-04-14T11:27:42.384Z,56.60
2019-04-14T11:30:11.073Z,56.00
2019-04-14T11:32:45.805Z,54.90
2019-04-14T11:35:16.902Z,52.60
2019-04-14T11:37:45.833Z,52.90
2019-04-14T11:40:14.188Z,52.10
2019-04-14T11:42:51.821Z,52.20
2019-04-14T11:45:09.295Z,51.00
2019-04-14T11:47:35.556Z,50.20
2019-04-14T11:50:03.923Z,48.90
2019-04-14T11:52:30.229Z,46.60
2019-04-14T11:54:56.890Z,45.80
2019-04-14T11:57:23.497Z,44.50
2019-04-14T11:59:54.496Z,45.10
2019-04-14T12:02:25.370Z,45.70
2019-04-14T12:05:02.835Z,45.00
2019-04-14T12:07:31.318Z,44.60
2019-04-14T12:09:59.478Z,45.40
2019-04-14T12:12:25.813Z,46.00
2019-04-14T12:14:52.191Z,45.10
2019-04-14T12:17:18.456Z,44.90
2019-04-14T12:19:44.852Z,45.50
2019-04-14T12:22:11.214Z,46.10
2019-04-14T12:24:37.619Z,45.30
2019-04-14T12:27:04.381Z,44.70
2019-04-14T12:29:30.758Z,44.80
2019-04-14T12:31:57.455Z,45.20
2019-04-14T12:34:23.863Z,45.00
2019-04-14T12:36:50.280Z,45.00
2019-04-14T12:39:19.568Z,44.70
2019-04-14T12:41:47.799Z,45.20
2019-04-14T12:44:31.223Z,45.30
2019-04-14T12:47:11.449Z,45.30
2019-04-14T12:49:39.749Z,45.70
2019-04-14T12:52:21.303Z,45.80
2019-04-14T12:54:45.033Z,45.20
2019-04-14T12:57:11.517Z,45.80
2019-04-14T12:59:37.832Z,46.50
2019-04-14T13:02:06.011Z,47.50
2019-04-14T13:04:32.324Z,48.40
2019-04-14T13:06:58.713Z,48.80
2019-04-14T13:09:24.966Z,48.90
2019-04-14T13:11:51.244Z,48.90
2019-04-14T13:14:17.548Z,48.90
2019-04-14T13:16:43.825Z,49.20
2019-04-14T13:19:10.255Z,48.90
2019-04-14T13:21:36.508Z,48.60
2019-04-14T13:24:05.001Z,48.10
2019-04-14T13:26:31.191Z,48.30
2019-04-14T13:28:57.518Z,48.30
2019-04-14T13:31:23.818Z,47.90
2019-04-14T13:33:50.131Z,48.20
2019-04-14T13:36:16.725Z,48.20
2019-04-14T13:38:43.117Z,48.70
2019-04-14T13:41:09.363Z,49.20
2019-04-14T13:43:36.664Z,49.40
2019-04-14T13:46:03.060Z,49.20
2019-04-14T13:48:29.448Z,47.90
2019-04-14T13:50:55.923Z,47.70
2019-04-14T13:53:22.214Z,46.60
2019-04-14T13:55:48.495Z,46.70
2019-04-14T13:58:14.991Z,47.70
2019-04-14T14:00:41.377Z,48.10
2019-04-14T14:03:07.628Z,48.50
2019-04-14T14:05:33.924Z,48.90
2019-04-14T14:08:00.332Z,49.00
2019-04-14T14:10:27.430Z,49.20
2019-04-14T14:12:58.490Z,49.50
2019-04-14T14:15:32.824Z,48.90
2019-04-14T14:18:01.457Z,48.70
2019-04-14T14:20:41.518Z,48.20
2019-04-14T14:23:12.439Z,48.70
2019-04-14T14:25:43.507Z,48.60
2019-04-14T14:28:09.790Z,48.60
2019-04-14T14:30:36.135Z,48.50
2019-04-14T14:33:02.667Z,48.60
2019-04-14T14:35:28.994Z,48.70
2019-04-14T14:37:55.216Z,48.80
2019-04-14T14:40:21.512Z,48.80
2019-04-14T14:42:47.793Z,48.80
2019-04-14T14:45:27.827Z,49.10
2019-04-14T14:48:08.128Z,49.20
2019-04-14T14:50:45.649Z,48.80
2019-04-14T14:53:12.666Z,48.90
2019-04-14T14:55:39.514Z,49.40
2019-04-14T14:58:05.990Z,49.10
2019-04-14T15:00:33.458Z,49.80
2019-04-14T15:02:59.944Z,50.30
2019-04-14T15:05:26.289Z,50.20
2019-04-14T15:07:52.938Z,50.30
2019-04-14T15:10:19.402Z,50.40
2019-04-14T15:12:45.749Z,50.80
2019-04-14T15:15:12.222Z,51.00
2019-04-14T15:17:38.503Z,51.20
2019-04-14T15:20:05.254Z,51.40
2019-04-14T15:22:31.529Z,51.40
2019-04-14T15:24:57.811Z,51.50
2019-04-14T15:27:24.278Z,52.10
2019-04-14T15:29:50.647Z,52.70
2019-04-14T15:32:17.025Z,52.90
2019-04-14T15:34:43.499Z,52.90
2019-04-14T15:37:09.728Z,52.80
2019-04-14T15:39:37.589Z,52.80
2019-04-14T15:42:04.132Z,52.70
2019-04-14T15:44:30.591Z,52.50
2019-04-14T15:46:56.867Z,52.60
2019-04-14T15:49:23.160Z,52.40
2019-04-14T15:51:49.585Z,52.40
2019-04-14T15:54:16.003Z,52.00
2019-04-14T15:56:46.985Z,52.10
2019-04-14T15:59:21.242Z,51.80
2019-04-14T16:01:49.455Z,51.80
2019-04-14T16:04:20.731Z,51.90
2019-04-14T16:07:05.899Z,52.00
2019-04-14T16:09:40.019Z,51.70
2019-04-14T16:12:26.770Z,52.00
2019-04-14T16:14:55.230Z,51.60
2019-04-14T16:17:42.124Z,51.40
2019-04-14T16:20:13.158Z,51.60
2019-04-14T16:22:39.933Z,51.40
2019-04-14T16:25:06.246Z,51.50
2019-04-14T16:27:34.566Z,51.20
2019-04-14T16:30:08.949Z,51.30
2019-04-14T16:32:39.885Z,51.40
2019-04-14T16:35:09.048Z,51.40
2019-04-14T16:37:35.514Z,51.60
2019-04-14T16:40:02.079Z,51.60
2019-04-14T16:42:28.471Z,51.60
2019-04-14T16:44:55.234Z,51.60
2019-04-14T16:47:23.581Z,51.90
2019-04-14T16:49:50.712Z,51.80
2019-04-14T16:52:19.043Z,52.00
2019-04-14T16:54:47.205Z,51.80
2019-04-14T16:57:32.132Z,51.80
2019-04-14T16:59:58.471Z,52.00
2019-04-14T17:02:24.961Z,52.10
2019-04-14T17:04:51.463Z,52.30
2019-04-14T17:07:18.202Z,52.40
2019-04-14T17:09:45.054Z,52.60
2019-04-14T17:12:11.950Z,52.70
2019-04-14T17:14:49.797Z,52.80
2019-04-14T17:17:21.338Z,52.70
2019-04-14T17:19:52.586Z,52.80
2019-04-14T17:22:23.622Z,52.60
2019-04-14T17:25:04.393Z,52.30
2019-04-14T17:27:35.646Z,52.10
2019-04-14T17:30:12.014Z,52.00
2019-04-14T17:32:40.485Z,52.80
2019-04-14T17:35:21.310Z,52.10
2019-04-14T17:37:49.646Z,51.90
2019-04-14T17:40:20.978Z,52.10
2019-04-14T17:43:06.159Z,52.30
2019-04-14T17:45:34.543Z,52.60
2019-04-14T17:48:02.888Z,52.70
2019-04-14T17:50:40.445Z,52.80
2019-04-14T17:53:04.580Z,53.00
2019-04-14T17:55:43.921Z,53.00
2019-04-14T17:58:06.143Z,53.30
2019-04-14T18:00:50.923Z,53.40
2019-04-14T18:03:31.118Z,53.60
2019-04-14T18:06:11.249Z,53.70
2019-04-14T18:08:45.258Z,54.00
2019-04-14T18:11:19.204Z,54.20
2019-04-14T18:14:05.741Z,54.80
2019-04-14T18:16:34.003Z,55.10
2019-04-14T18:19:02.276Z,54.60
2019-04-14T18:21:28.541Z,54.90
2019-04-14T18:23:54.838Z,55.20
2019-04-14T18:26:21.102Z,55.40
2019-04-14T18:28:58.480Z,55.40
2019-04-14T18:31:26.953Z,55.10
2019-04-14T18:33:58.066Z,55.00
2019-04-14T18:36:29.323Z,55.00
2019-04-14T18:39:06.481Z,55.10
2019-04-14T18:41:38.515Z,55.20
2019-04-14T18:44:12.781Z,55.40
2019-04-14T18:46:41.009Z,55.50
2019-04-14T18:49:13.553Z,55.80
2019-04-14T18:51:41.830Z,56.10
2019-04-14T18:54:13.292Z,56.10
2019-04-14T18:56:47.744Z,56.20
2019-04-14T18:59:28.290Z,56.40
2019-04-14T19:01:56.386Z,56.60
2019-04-14T19:04:22.999Z,56.50
2019-04-14T19:06:50.285Z,56.30
2019-04-14T19:09:16.915Z,57.00
2019-04-14T19:11:51.104Z,57.60
2019-04-14T19:14:19.460Z,57.30
2019-04-14T19:16:56.701Z,57.70
2019-04-14T19:19:23.802Z,57.80
2019-04-14T19:21:52.119Z,57.80
2019-04-14T19:24:18.212Z,57.60
2019-04-14T19:26:44.990Z,58.20
2019-04-14T19:29:11.388Z,58.10
2019-04-14T19:31:37.681Z,58.50
2019-04-14T19:34:04.141Z,58.60
2019-04-14T19:36:30.405Z,58.40
2019-04-14T19:38:57.030Z,59.00
2019-04-14T19:41:23.320Z,58.90
2019-04-14T19:43:49.609Z,58.90
2019-04-14T19:46:16.145Z,59.30
2019-04-14T19:48:42.407Z,59.00
2019-04-14T19:51:08.685Z,59.70
2019-04-14T19:53:35.038Z,59.20
2019-04-14T19:56:01.345Z,59.70
2019-04-14T19:58:27.749Z,59.60
2019-04-14T20:00:54.089Z,59.80
2019-04-14T20:03:20.498Z,60.10
2019-04-14T20:05:46.891Z,60.40
2019-04-14T20:08:13.308Z,60.50
2019-04-14T20:10:40.025Z,60.10
2019-04-14T20:13:06.389Z,60.10
2019-04-14T20:15:37.315Z,59.90
2019-04-14T20:18:05.771Z,60.30
2019-04-14T20:20:43.196Z,60.00
2019-04-14T20:23:17.624Z,60.80
2019-04-14T20:25:45.941Z,61.10
2019-04-14T20:28:19.933Z,61.00
2019-04-14T20:30:48.141Z,61.10
2019-04-14T20:33:14.683Z,60.80
2019-04-14T20:35:41.120Z,61.30
2019-04-14T20:38:07.459Z,61.00
2019-04-14T20:40:33.853Z,61.90
2019-04-14T20:43:00.121Z,61.70
2019-04-14T20:45:26.572Z,62.50
2019-04-14T20:47:52.984Z,61.60
2019-04-14T20:50:19.613Z,61.70
2019-04-14T20:52:45.951Z,62.40
2019-04-14T20:55:12.370Z,62.80
2019-04-14T20:57:38.728Z,63.10
2019-04-14T21:00:05.152Z,63.00
2019-04-14T21:05:23.520Z,63.40
2019-04-14T21:08:06.648Z,64.30
2019-04-14T21:10:34.930Z,64.20
2019-04-14T21:13:06.076Z,62.70
2019-04-14T21:15:40.276Z,65.00
2019-04-14T21:21:07.296Z,64.90
2019-04-14T21:23:35.546Z,65.10
2019-04-14T21:26:06.675Z,65.40
2019-04-14T21:28:51.684Z,64.60
2019-04-14T21:31:22.575Z,65.50
2019-04-14T21:34:00.286Z,64.50
2019-04-14T21:36:47.145Z,65.70
2019-04-14T21:39:18.606Z,66.90
2019-04-14T21:41:47.393Z,65.20
2019-04-14T21:44:13.667Z,66.10
2019-04-14T21:46:40.186Z,65.70
2019-04-14T21:49:06.473Z,65.00
2019-04-14T21:51:46.805Z,65.40
2019-04-14T21:54:13.202Z,66.00
2019-04-14T21:56:39.849Z,65.10
2019-04-14T21:59:13.790Z,66.20
2019-04-14T22:01:58.840Z,68.50
2019-04-14T22:04:29.764Z,67.00
2019-04-14T22:07:03.823Z,66.60
2019-04-14T22:09:32.395Z,66.90
2019-04-14T22:11:59.705Z,66.90
2019-04-14T22:14:25.974Z,67.60
2019-04-14T22:16:52.268Z,67.10
2019-04-14T22:19:18.971Z,67.40
2019-04-14T22:21:47.438Z,66.60
2019-04-14T22:24:13.401Z,68.00
2019-04-14T22:26:39.880Z,67.10
2019-04-14T22:29:06.261Z,67.50
2019-04-14T22:31:32.907Z,67.50
2019-04-14T22:33:59.302Z,68.50
2019-04-14T22:36:25.574Z,67.80
2019-04-14T22:38:51.977Z,67.60
2019-04-14T22:41:18.265Z,69.10
2019-04-14T22:43:44.529Z,68.60
2019-04-14T22:46:10.839Z,67.70
2019-04-14T22:48:39.399Z,68.80
2019-04-14T22:51:05.600Z,68.00
2019-04-14T22:53:31.881Z,68.40
2019-04-14T22:55:58.156Z,68.00
2019-04-14T22:58:24.448Z,68.00
2019-04-14T23:00:55.789Z,68.30
2019-04-14T23:03:26.908Z,68.20
2019-04-14T23:05:55.117Z,66.40
2019-04-14T23:08:23.386Z,66.90
2019-04-14T23:11:00.877Z,67.80
2019-04-14T23:13:32.282Z,67.00
2019-04-14T23:16:12.494Z,67.10
2019-04-14T23:18:40.695Z,69.70
2019-04-14T23:21:08.886Z,68.60
2019-04-14T23:23:54.058Z,69.70
2019-04-14T23:26:20.745Z,71.30
2019-04-14T23:28:47.154Z,70.60
2019-04-14T23:31:13.645Z,71.80
2019-04-14T23:33:40.248Z,69.90
2019-04-14T23:36:06.568Z,70.40
2019-04-14T23:38:32.836Z,71.00
2019-04-14T23:40:59.104Z,70.20
2019-04-14T23:43:25.362Z,70.60
2019-04-14T23:45:51.675Z,69.10
2019-04-14T23:48:17.946Z,69.90
2019-04-14T23:50:44.238Z,70.10
2019-04-14T23:53:10.555Z,70.20
2019-04-14T23:55:36.812Z,70.50
2019-04-14T23:58:03.092Z,72.40
